• Join FlightAware (Why Join?)
  • Login
  • US Flag 
08:27PM EDT


 

Airport Tracker/Info


-or-


 

Live Flight TrackerFlight Track Log ✈ AAY612 ✈ 02-May-2012 ✈ KSFB - KGSP

Flight Track Log - Related Links

Times and Time Zones

All times are in EDT time to prevent confusion due to time zone crossing. See the AAY612 flight status page for this flight to view local times or setup timezone preferences in your user account.

Time Position Orientation Groundspeed Altitude Reporting Facility
EDT Latitude Longitude Course Direction KTS MPH feet Rate Location/Type
07:31AM 28.7833 -81.2167 60° Northeast 189 217 1,100  Level Orlando TRACON
07:32AM 28.8000 -81.1833 62° Northeast 176 203 2,400 2,100 Climbing Orlando TRACON
07:33AM 28.8183 -81.1436 320° Northwest 222 255 4,400 2,040 Climbing Jacksonville Center
07:34AM 28.8775 -81.1997 284° West 231 266 7,100 2,100 Climbing Jacksonville Center
07:35AM 28.8975 -81.2894 307° West 240 276 9,500 1,980 Climbing Jacksonville Center
07:36AM 28.9486 -81.3669 351° North 275 316 11,100 1,260 Climbing Jacksonville Center
07:37AM 29.0489 -81.3844 354° North 304 350 12,100 1,740 Climbing Jacksonville Center
07:38AM 29.1514 -81.3969 353° North 340 391 14,600 2,520 Climbing Jacksonville Center
07:39AM 29.2622 -81.4119 350° North 365 420 17,100 2,340 Climbing Jacksonville Center
07:40AM 29.3836 -81.4364 352° North 387 445 19,400 2,100 Climbing Jacksonville Center
07:41AM 29.4964 -81.4539 353° North 398 458 21,400 1,800 Climbing Jacksonville Center
07:42AM 29.6114 -81.4711 352° North 411 473 23,100 1,680 Climbing Jacksonville Center
07:43AM 29.7328 -81.4911 353° North 421 484 24,900 1,560 Climbing Jacksonville Center
07:44AM 29.8519 -81.5083 352° North 427 491 26,300 1,560 Climbing Jacksonville Center
07:45AM 29.9711 -81.5283 353° North 427 491 28,100 1,560 Climbing Jacksonville Center
07:46AM 30.0903 -81.5458 352° North 427 491 29,500 1,500 Climbing Jacksonville Center
07:47AM 30.2117 -81.5658 352° North 427 491 31,100 1,500 Climbing Jacksonville Center
07:48AM 30.3286 -81.5858 354° North 427 491 32,500 1,200 Climbing Jacksonville Center
07:49AM 30.4458 -81.6011 350° North 427 491 33,600 900 Climbing Jacksonville Center
07:50AM 30.5608 -81.6236 353° North 427 491 34,400 660 Climbing Jacksonville Center
07:51AM 30.6800 -81.6414 352° North 422 486 35,000 240 Climbing Jacksonville Center
07:52AM 30.7972 -81.6617 351° North 422 486 35,000  Level Jacksonville Center
07:53AM 30.9122 -81.6819 352° North 427 491 35,000  Level Jacksonville Center
07:54AM 31.0314 -81.7022 352° North 427 491 35,000  Level Jacksonville Center
07:55AM 31.1506 -81.7225 353° North 427 491 35,000  Level Jacksonville Center
07:56AM 31.2678 -81.7406 351° North 427 491 35,000  Level Jacksonville Center
07:57AM 31.3847 -81.7633 351° North 427 491 35,000  Level Jacksonville Center
07:58AM 31.5019 -81.7839 352° North 427 491 35,000  Level Jacksonville Center
08:00AM 31.6953 -81.8153 351° North 432 497 35,000  Level Atlanta Center
08:01AM 31.8125 -81.8369 353° North 425 489 35,000  Level Atlanta Center
08:02AM 31.9297 -81.8536 350° North 425 489 35,000  Level Atlanta Center
08:03AM 32.0492 -81.8775 352° North 425 489 35,000  Level Atlanta Center
08:04AM 32.1683 -81.8969 352° North 430 495 35,000  Level Atlanta Center
08:05AM 32.3003 -81.9183 351° North 424 488 35,000  Level Atlanta Center
08:06AM 32.4194 -81.9400 351° North 430 495 35,000  Level Atlanta Center
08:07AM 32.5389 -81.9617 353° North 430 495 35,000 -180 Level Atlanta Center
08:08AM 32.6603 -81.9786 351° North 430 495 34,700 -660 Descending Atlanta Center
08:09AM 32.7775 -82.0006 351° North 435 501 33,700 -1,020 Descending Atlanta Center
08:10AM 32.8969 -82.0225 352° North 429 494 32,700 -960 Descending Atlanta Center
08:11AM 33.0161 -82.0422 351° North 429 494 31,800 -960 Descending Atlanta Center
08:12AM 33.1375 -82.0642 352° North 429 494 30,800 -1,020 Descending Atlanta Center
08:13AM 33.2589 -82.0836 352° North 429 494 29,800 -1,020 Descending Atlanta Center
08:14AM 33.3803 -82.1033 351° North 434 499 28,800 -1,020 Descending Atlanta Center
08:15AM 33.5039 -82.1281 353° North 434 499 27,800 -1,020 Descending Atlanta Center
08:16AM 33.6294 -82.1478 357° North 446 513 26,800 -1,680 Descending Atlanta Center
08:17AM 33.7547 -82.1550 North 451 519 24,500 -2,400 Descending Atlanta Center
08:18AM 33.8653 -82.1450 356° North 441 507 22,100 -2,460 Descending Atlanta Center
08:19AM 33.9844 -82.1550 356° North 435 501 19,600 -2,400 Descending Atlanta Center
08:20AM 34.0972 -82.1650 357° North 420 483 17,300 -2,580 Descending Atlanta Center
08:21AM 34.2058 -82.1725 357° North 401 461 14,500 -2,760 Descending Atlanta Center
08:22AM 34.3125 -82.1803 357° North 390 449 11,800 -2,100 Descending Atlanta Center
08:23AM 34.4106 -82.1856 358° North 371 427 10,400 -1,200 Descending Atlanta Center
08:24AM 34.5003 -82.1886 16° North 343 395 9,400 -1,260 Descending Atlanta Center
08:25AM 34.5792 -82.1617 North 309 356 7,900 -1,200 Descending Atlanta Center
08:26AM 34.6561 -82.1475 12° North 295 339 7,000 -720 Descending Atlanta Center
08:27AM 34.7311 -82.1281 12° North 279 321 6,500 -960 Descending Atlanta Center
08:28AM 34.8058 -82.1086 12° North 274 315 5,100 -1,440 Descending Atlanta Center
08:29AM 34.8703 -82.0919 343° North 269 310 3,700 -1,140 Descending Atlanta Center
08:30AM 34.9417 -82.1181 343° North 223 257 2,900 -840 Descending Atlanta Center